Terminal Aerodrome Forecast
Issued by NWS

Home | Current Version | Previous Version | Text Only | Print | Product List | Glossary On
Versions: 1 2 3 4 5 6 7 8 9 10 11 12 13 14 15 16 17 18 19 20 21 22 23 24 25 26
029
FTUS41 KBOX 221740
TAFHYA
TAF
KHYA 221740Z 2218/2318 16010KT P6SM VCSH OVC040
     FM222100 16011G20KT P6SM -SHRA OVC030
     FM222300 17012G22KT 5SM -SHRA BR OVC010
     FM231300 17006KT 3SM BR VCSH OVC003
     FM231500 05006KT 3SM BR VCSH OVC003=

USA.gov is the U.S. government's official web portal to all federal, state and local government web resources and services.